Time;durP1;ratioP1;P1;durP2;ratioP2;P2;SDS_P1;SDS_P2;PMS_P1;PMS_P2;Temp;Humidity;BMP_temperature;BMP_pressure;BME280_temperature;BME280_humidity;BME280_pressure;Samples;Min_cycle;Max_cycle;Signal;HPM_P1;HPM_P2
2021/04/27 00:00:56;;;;;;;6.80;5.30;;;2.40;99.90;;;2.15;100.00;94297.00;2459112;56;26108;-59
2021/04/27 00:03:42;;;;;;;10.53;5.83;;;2.30;99.90;;;2.10;100.00;94288.00;2236454;57;26213;-60
2021/04/27 00:06:28;;;;;;;10.83;5.77;;;2.20;99.90;;;2.05;100.00;94277.00;2459008;56;25564;-58
2021/04/27 00:09:15;;;;;;;8.33;5.43;;;2.30;99.90;;;2.10;100.00;94272.00;2236623;57;26581;-60
2021/04/27 00:12:02;;;;;;;10.50;5.30;;;2.10;99.90;;;1.93;100.00;94268.00;2459142;56;25564;-58
2021/04/27 00:14:48;;;;;;;9.17;5.77;;;2.10;99.90;;;1.91;100.00;94263.00;2236520;57;26570;-59
2021/04/27 00:17:35;;;;;;;13.93;5.73;;;2.00;99.90;;;1.89;100.00;94259.00;2236234;57;26117;-60
2021/04/27 00:20:24;;;;;;;10.17;5.47;;;1.90;99.90;;;1.74;100.00;94257.00;2458891;56;26145;-58
2021/04/27 00:23:10;;;;;;;8.43;5.97;;;1.70;99.90;;;1.63;100.00;94252.00;2236529;57;26184;-59
2021/04/27 00:25:57;;;;;;;8.03;4.93;;;1.60;99.90;;;1.52;100.00;94254.00;2458975;56;26578;-59
2021/04/27 00:28:43;;;;;;;6.87;4.67;;;1.50;99.90;;;1.44;100.00;94252.00;2236472;57;26139;-59
2021/04/27 00:31:29;;;;;;;6.17;4.60;;;1.30;99.90;;;1.25;100.00;94251.00;2459188;56;26104;-58
2021/04/27 00:34:16;;;;;;;6.00;4.20;;;1.20;99.90;;;1.15;100.00;94248.00;2236027;57;26247;-58
2021/04/27 00:37:02;;;;;;;6.77;4.40;;;1.10;99.90;;;1.07;100.00;94251.00;2459429;56;26117;-59
2021/04/27 00:39:49;;;;;;;9.07;4.77;;;1.00;99.90;;;0.98;100.00;94244.00;2236574;57;26551;-58
2021/04/27 00:42:39;;;;;;;7.40;4.77;;;0.90;99.90;;;0.84;100.00;94236.00;2236213;57;26377;-59
2021/04/27 00:45:29;;;;;;;8.67;5.00;;;0.90;99.90;;;0.78;100.00;94234.00;2236576;57;26534;-58
2021/04/27 00:48:15;;;;;;;6.10;4.70;;;0.90;99.90;;;0.77;100.00;94233.00;2460001;56;26156;-59
2021/04/27 00:51:02;;;;;;;8.17;5.10;;;1.00;99.90;;;0.83;100.00;94228.00;2235928;57;25143;-58
2021/04/27 00:53:49;;;;;;;6.83;4.53;;;0.80;99.90;;;0.77;100.00;94225.00;2236742;57;26131;-59
2021/04/27 00:56:35;;;;;;;6.53;4.47;;;0.80;99.90;;;0.77;100.00;94222.00;2459265;56;26145;-59
2021/04/27 00:59:21;;;;;;;6.13;4.00;;;0.80;99.90;;;0.75;100.00;94216.00;2236418;57;26140;-58
2021/04/27 01:02:08;;;;;;;8.73;4.73;;;0.80;99.90;;;0.75;100.00;94222.00;2459778;56;25008;-58
2021/04/27 01:04:55;;;;;;;7.03;4.73;;;0.70;99.90;;;0.70;100.00;94213.00;2236395;57;26553;-58
2021/04/27 01:07:50;;;;;;;7.80;4.83;;;0.70;99.90;;;0.64;100.00;94214.00;2459300;56;26708;-58
2021/04/27 01:10:44;;;;;;;6.20;4.33;;;0.70;99.90;;;0.61;100.00;94212.00;2236338;57;26526;-57
2021/04/27 01:13:38;;;;;;;7.40;4.93;;;0.40;99.90;;;0.33;100.00;94216.00;2236829;57;26136;-58
2021/04/27 01:16:26;;;;;;;7.20;5.10;;;0.20;99.90;;;0.36;100.00;94216.00;2459267;56;26581;-58
2021/04/27 01:19:20;;;;;;;6.37;4.37;;;0.40;99.90;;;0.31;100.00;94213.00;2236477;57;26336;-58
2021/04/27 01:22:09;;;;;;;6.37;4.67;;;0.30;99.90;;;0.24;100.00;94207.00;2459521;56;26688;-58
2021/04/27 01:25:00;;;;;;;10.13;4.80;;;0.40;99.90;;;0.32;100.00;94212.00;2236435;57;26574;-58
2021/04/27 01:27:47;;;;;;;5.70;4.33;;;0.30;99.90;;;0.28;100.00;94203.00;2459116;56;26158;-59
2021/04/27 01:30:38;;;;;;;6.73;4.40;;;0.10;99.90;;;0.08;100.00;94204.00;2236243;57;26132;-58
2021/04/27 01:33:28;;;;;;;8.50;5.00;;;0.00;99.90;;;0.02;100.00;94219.00;2459625;56;26128;-58
2021/04/27 01:36:15;;;;;;;7.47;5.10;;;-0.10;99.90;;;-0.04;100.00;94214.00;2235807;57;26188;-58
2021/04/27 01:39:02;;;;;;;9.23;5.67;;;-0.10;99.90;;;-0.03;100.00;94212.00;2459849;56;26575;-58
2021/04/27 01:41:49;;;;;;;6.37;4.90;;;0.00;99.90;;;-0.05;100.00;94210.00;2236277;57;26207;-58
2021/04/27 01:44:38;;;;;;;10.63;5.37;;;0.10;99.90;;;-0.02;100.00;94212.00;2459054;56;26500;-59
2021/04/27 01:47:26;;;;;;;7.93;5.10;;;0.10;99.90;;;0.02;100.00;94210.00;2236600;57;26176;-59
2021/04/27 01:50:13;;;;;;;7.63;4.83;;;0.10;99.90;;;-0.02;100.00;94214.00;2459185;56;26204;-58
2021/04/27 01:53:01;;;;;;;6.77;4.60;;;0.10;99.90;;;-0.01;100.00;94214.00;2236414;57;26582;-59
2021/04/27 01:55:49;;;;;;;9.27;4.60;;;0.00;99.90;;;-0.02;100.00;94212.00;2459184;56;26236;-58
2021/04/27 01:58:35;;;;;;;7.50;4.67;;;0.00;99.90;;;0.03;100.00;94211.00;2236404;57;26281;-58
2021/04/27 02:01:22;;;;;;;6.77;4.90;;;0.10;99.90;;;-0.02;100.00;94211.00;2459104;56;26633;-58
2021/04/27 02:04:08;;;;;;;5.70;4.60;;;0.00;99.90;;;-0.04;100.00;94203.00;2236393;57;26156;-58
2021/04/27 02:06:56;;;;;;;10.90;4.90;;;-0.10;99.90;;;-0.06;100.00;94213.00;2459564;56;25565;-57
2021/04/27 02:09:43;;;;;;;8.30;4.90;;;-0.10;99.90;;;-0.11;100.00;94209.00;2236257;57;26219;-58
2021/04/27 02:12:30;;;;;;;7.17;4.70;;;-0.10;99.90;;;-0.14;100.00;94213.00;2459142;56;26113;-58
2021/04/27 02:15:21;;;;;;;7.57;4.70;;;-0.10;99.90;;;-0.11;100.00;94209.00;2236694;57;26184;-57
2021/04/27 02:18:30;;;;;;;6.90;4.93;;;-0.20;99.90;;;-0.23;100.00;94208.00;2459392;56;26653;-59
2021/04/27 02:21:18;;;;;;;9.17;4.93;;;-0.30;99.90;;;-0.30;100.00;94202.00;2458698;56;25144;-58
2021/04/27 02:24:07;;;;;;;7.63;4.67;;;-0.30;99.90;;;-0.32;100.00;94199.00;2236520;57;26189;-59
2021/04/27 02:26:54;;;;;;;7.97;4.60;;;-0.20;99.90;;;-0.28;100.00;94198.00;2459071;56;26184;-58
2021/04/27 02:29:41;;;;;;;7.07;4.50;;;-0.10;99.90;;;-0.15;100.00;94198.00;2236184;57;26165;-59
2021/04/27 02:32:28;;;;;;;7.33;4.97;;;-0.10;99.90;;;-0.15;100.00;94187.00;2459729;56;26234;-58
2021/04/27 02:35:18;;;;;;;7.13;4.57;;;-0.20;99.90;;;-0.22;100.00;94186.00;2236390;57;26144;-57
2021/04/27 02:38:04;;;;;;;8.40;5.27;;;-0.20;99.90;;;-0.26;100.00;94187.00;2459455;56;26132;-58
2021/04/27 02:40:53;;;;;;;6.00;4.63;;;-0.30;99.90;;;-0.32;100.00;94188.00;2236540;57;25698;-58
2021/04/27 02:43:40;;;;;;;6.87;4.60;;;-0.40;99.90;;;-0.45;100.00;94178.00;2459569;56;26128;-58
2021/04/27 02:46:26;;;;;;;7.93;4.67;;;-0.40;99.90;;;-0.43;100.00;94180.00;2236362;57;26152;-58
2021/04/27 02:49:13;;;;;;;5.70;4.20;;;-0.40;99.90;;;-0.47;100.00;94182.00;2236400;57;26124;-58
2021/04/27 02:52:00;;;;;;;6.77;4.67;;;-0.50;99.90;;;-0.52;100.00;94174.00;2459206;56;26148;-59
2021/04/27 02:54:46;;;;;;;6.47;4.23;;;-0.50;99.90;;;-0.49;100.00;94181.00;2236373;57;26151;-58
2021/04/27 02:57:32;;;;;;;6.60;4.80;;;-0.50;99.90;;;-0.53;100.00;94178.00;2459223;56;26427;-58
2021/04/27 03:00:20;;;;;;;6.47;4.40;;;-0.60;99.90;;;-0.55;100.00;94185.00;2458688;56;26220;-57
2021/04/27 03:03:07;;;;;;;10.57;4.80;;;-0.60;99.90;;;-0.58;100.00;94177.00;2459451;56;26648;-58
2021/04/27 03:05:54;;;;;;;7.97;4.73;;;-0.50;99.90;;;-0.56;100.00;94173.00;2236130;57;26586;-58
2021/04/27 03:08:40;;;;;;;6.73;4.73;;;-0.60;99.90;;;-0.60;100.00;94169.00;2459445;56;26293;-58
2021/04/27 03:11:27;;;;;;;7.20;5.00;;;-0.60;99.90;;;-0.61;100.00;94176.00;2235953;57;26100;-58
2021/04/27 03:14:14;;;;;;;7.23;5.27;;;-0.40;99.90;;;-0.51;100.00;94168.00;2236401;57;26108;-58
2021/04/27 03:17:00;;;;;;;8.23;5.47;;;-0.40;99.90;;;-0.45;100.00;94167.00;2459392;56;26099;-58
2021/04/27 03:19:47;;;;;;;7.57;5.30;;;-0.30;99.90;;;-0.38;100.00;94160.00;2235975;57;26586;-57
2021/04/27 03:22:33;;;;;;;9.30;4.97;;;-0.20;99.90;;;-0.32;100.00;94160.00;2459138;56;26236;-58
2021/04/27 03:25:20;;;;;;;8.17;4.67;;;-0.10;99.90;;;-0.22;100.00;94161.00;2236306;57;26121;-58
2021/04/27 03:28:08;;;;;;;7.27;4.80;;;0.00;99.90;;;-0.20;100.00;94164.00;2459133;56;26109;-57
2021/04/27 03:30:54;;;;;;;9.13;5.30;;;0.00;99.90;;;-0.18;100.00;94160.00;2236755;57;26643;-58
2021/04/27 03:33:40;;;;;;;8.10;5.30;;;0.00;99.90;;;-0.12;100.00;94154.00;2459389;56;26168;-57
2021/04/27 03:36:27;;;;;;;8.97;5.60;;;0.10;99.90;;;-0.06;100.00;94159.00;2235903;57;26172;-58
2021/04/27 03:39:13;;;;;;;8.23;4.83;;;0.20;99.90;;;0.04;100.00;94156.00;2236519;57;26179;-57
2021/04/27 03:42:00;;;;;;;10.53;5.13;;;0.20;99.90;;;0.12;100.00;94151.00;2458824;56;26108;-59
2021/04/27 03:44:46;;;;;;;8.57;5.20;;;0.30;99.90;;;0.16;100.00;94142.00;2236337;57;26171;-58
2021/04/27 03:47:33;;;;;;;10.53;5.57;;;0.20;99.90;;;0.17;100.00;94152.00;2459537;56;26649;-59
2021/04/27 03:50:21;;;;;;;7.97;5.73;;;0.30;99.90;;;0.17;100.00;94152.00;2236183;57;26145;-57
2021/04/27 03:53:07;;;;;;;8.20;5.03;;;0.20;99.90;;;0.11;100.00;94151.00;2459451;56;25239;-58
2021/04/27 03:55:54;;;;;;;9.17;5.93;;;0.30;99.90;;;0.16;100.00;94153.00;2236471;57;25083;-58
2021/04/27 03:58:41;;;;;;;8.13;5.50;;;0.30;99.90;;;0.19;100.00;94150.00;2459315;56;26164;-58
2021/04/27 04:01:27;;;;;;;11.63;5.87;;;0.30;99.90;;;0.20;100.00;94153.00;2236089;57;26136;-58
2021/04/27 04:04:13;;;;;;;9.33;5.73;;;0.20;99.90;;;0.13;100.00;94155.00;2236532;57;26252;-58
2021/04/27 04:07:00;;;;;;;11.03;6.00;;;0.20;99.90;;;0.10;100.00;94160.00;2459217;56;26212;-57
2021/04/27 04:09:46;;;;;;;7.10;5.17;;;0.20;99.90;;;0.12;100.00;94153.00;2236381;57;27042;-58
2021/04/27 04:12:32;;;;;;;13.80;7.20;;;0.30;99.90;;;0.19;100.00;94158.00;2459136;56;26184;-59
2021/04/27 04:15:21;;;;;;;13.27;7.40;;;0.20;99.90;;;0.19;100.00;94163.00;2236291;57;25115;-58
2021/04/27 04:18:07;;;;;;;11.37;6.57;;;0.20;99.90;;;0.19;100.00;94155.00;2459431;56;26245;-59
2021/04/27 04:20:54;;;;;;;12.50;6.33;;;0.30;99.90;;;0.28;100.00;94162.00;2236046;57;25529;-59
2021/04/27 04:23:40;;;;;;;9.07;6.30;;;0.40;99.90;;;0.37;100.00;94151.00;2459172;56;26148;-58
2021/04/27 04:26:27;;;;;;;10.27;6.10;;;0.40;99.90;;;0.45;100.00;94155.00;2236007;57;26523;-58
2021/04/27 04:29:14;;;;;;;9.23;6.30;;;0.40;99.90;;;0.48;100.00;94151.00;2236426;57;26168;-58
2021/04/27 04:32:00;;;;;;;9.63;5.77;;;0.50;99.90;;;0.54;100.00;94148.00;2459238;56;25566;-59
2021/04/27 04:34:46;;;;;;;8.80;5.80;;;0.40;99.90;;;0.54;100.00;94147.00;2235752;57;26530;-59
2021/04/27 04:37:33;;;;;;;8.83;5.93;;;0.50;99.90;;;0.67;100.00;94149.00;2459208;56;26216;-60
2021/04/27 04:40:20;;;;;;;10.73;5.90;;;0.60;99.90;;;0.74;100.00;94153.00;2235333;57;26224;-60
2021/04/27 04:43:06;;;;;;;12.07;5.93;;;0.60;99.90;;;0.82;100.00;94151.00;2234957;57;25715;-61
2021/04/27 04:45:53;;;;;;;8.90;5.87;;;0.60;99.90;;;0.83;100.00;94148.00;2236676;57;26144;-61
2021/04/27 04:48:39;;;;;;;7.40;5.60;;;0.50;99.90;;;0.77;100.00;94145.00;2458541;56;25553;-60
2021/04/27 04:51:26;;;;;;;11.93;6.60;;;0.60;99.90;;;0.89;100.00;94146.00;2234820;57;25579;-61
2021/04/27 04:54:13;;;;;;;6.83;5.43;;;0.70;99.90;;;1.01;100.00;94146.00;2235157;57;26243;-60
2021/04/27 04:56:59;;;;;;;9.77;5.53;;;0.80;99.90;;;1.07;100.00;94155.00;2234636;57;25574;-60
2021/04/27 04:59:46;;;;;;;12.67;6.13;;;0.80;99.90;;;1.13;100.00;94150.00;2235539;57;26166;-60
2021/04/27 05:02:32;;;;;;;7.27;5.70;;;0.80;99.90;;;1.19;100.00;94141.00;2235282;57;26249;-61
2021/04/27 05:05:19;;;;;;;9.03;5.67;;;0.90;99.90;;;1.27;100.00;94141.00;2234534;57;26151;-60
2021/04/27 05:08:10;;;;;;;6.20;5.10;;;0.80;99.90;;;1.25;100.00;94140.00;2235531;57;26159;-60
2021/04/27 05:10:57;;;;;;;9.73;5.07;;;1.00;99.90;;;1.35;100.00;94144.00;2236237;57;25609;-60
2021/04/27 05:13:43;;;;;;;6.17;4.53;;;0.90;99.90;;;1.32;100.00;94144.00;2459166;56;26163;-61
2021/04/27 05:16:30;;;;;;;6.90;5.10;;;0.70;99.90;;;1.21;100.00;94149.00;2236469;57;26120;-61
2021/04/27 05:19:18;;;;;;;6.63;4.83;;;1.10;99.90;;;1.68;100.00;94143.00;2459022;56;25457;-61
2021/04/27 05:22:06;;;;;;;6.03;4.77;;;1.40;99.90;;;3.27;100.00;94148.00;2236146;57;26090;-60
2021/04/27 05:24:53;;;;;;;6.35;4.90;;;2.20;99.90;;;6.08;100.00;94138.00;2242617;56;26189;-60
2021/04/27 05:27:39;;;;;;;6.77;4.90;;;3.20;99.90;;;8.15;100.00;94130.00;2459499;56;25573;-61
2021/04/27 05:30:26;;;;;;;10.40;5.57;;;3.60;99.90;;;8.26;100.00;94124.00;2236412;57;26103;-61
2021/04/27 05:33:12;;;;;;;10.83;5.13;;;4.40;99.90;;;9.91;100.00;94130.00;2459841;56;26654;-61
2021/04/27 05:35:59;;;;;;;6.90;4.97;;;5.30;99.90;;;10.74;93.60;94126.00;2236144;57;26135;-60
2021/04/27 05:38:45;;;;;;;6.73;5.07;;;5.90;99.90;;;11.96;80.53;94130.00;2459415;56;26193;-61
2021/04/27 05:41:32;;;;;;;9.80;5.37;;;6.30;99.90;;;12.19;73.97;94117.00;2236369;57;26168;-61
2021/04/27 05:44:18;;;;;;;8.20;5.47;;;6.50;99.90;;;12.27;71.44;94121.00;2459980;56;26124;-61
2021/04/27 05:47:05;;;;;;;7.60;5.63;;;6.90;99.90;;;12.70;69.10;94118.00;2236779;57;26633;-61
2021/04/27 05:49:51;;;;;;;7.37;5.30;;;7.30;99.90;;;13.37;64.55;94114.00;2459547;56;26184;-61
2021/04/27 05:52:38;;;;;;;10.20;5.33;;;7.70;99.90;;;13.98;61.26;94113.00;2459598;56;26124;-61
2021/04/27 05:55:24;;;;;;;7.83;5.63;;;7.50;99.90;;;13.31;62.79;94103.00;2236215;57;26116;-61
2021/04/27 05:58:11;;;;;;;10.83;5.80;;;8.30;99.90;;;14.72;56.84;94103.00;2459882;56;26116;-61
2021/04/27 06:00:58;;;;;;;9.07;5.73;;;8.10;99.90;;;14.24;56.45;94100.00;2236446;57;26128;-61
2021/04/27 06:03:44;;;;;;;9.33;5.47;;;8.50;99.90;;;15.49;55.34;94094.00;2459535;56;26112;-61
2021/04/27 06:06:34;;;;;;;9.93;5.60;;;10.70;99.90;;;16.28;46.61;94083.00;2236230;57;26625;-61
2021/04/27 06:09:21;;;;;;;9.53;5.33;;;11.60;99.90;;;15.18;49.35;94097.00;2459653;56;26152;-61
2021/04/27 06:12:08;;;;;;;9.03;5.50;;;11.10;99.90;;;14.80;52.15;94087.00;2236107;57;26184;-61
2021/04/27 06:14:54;;;;;;;7.43;5.00;;;11.90;99.90;;;16.46;46.51;94085.00;2459813;56;26245;-61
2021/04/27 06:17:41;;;;;;;8.00;5.50;;;12.30;99.90;;;16.47;45.50;94093.00;2236753;57;26285;-61
2021/04/27 06:20:27;;;;;;;7.80;5.57;;;13.20;99.90;;;17.34;43.34;94088.00;2458918;56;26203;-61
2021/04/27 06:23:13;;;;;;;9.30;5.87;;;13.80;99.90;;;17.84;42.31;94083.00;2236978;57;26661;-61
2021/04/27 06:26:00;;;;;;;10.60;5.83;;;11.80;99.90;;;16.07;44.90;94089.00;2236152;57;26221;-61
2021/04/27 06:28:46;;;;;;;9.90;6.00;;;12.10;99.90;;;15.51;47.00;94092.00;2459840;56;26156;-61
2021/04/27 06:31:33;;;;;;;9.57;6.10;;;12.10;99.90;;;17.67;43.64;94088.00;2236622;57;26180;-61
2021/04/27 06:34:19;;;;;;;12.87;6.33;;;12.60;99.90;;;16.86;43.77;94096.00;2459266;56;26688;-62
2021/04/27 06:37:05;;;;;;;11.53;5.90;;;11.40;99.90;;;14.84;46.89;94096.00;2236427;57;26161;-62
2021/04/27 06:39:52;;;;;;;8.37;5.90;;;10.50;99.90;;;15.14;48.87;94092.00;2459926;56;26112;-61
2021/04/27 06:42:38;;;;;;;8.70;6.30;;;12.50;99.90;;;15.59;48.36;94087.00;2236064;57;26736;-61
2021/04/27 06:45:26;;;;;;;8.60;5.93;;;13.30;99.00;;;18.19;41.43;94077.00;2235944;57;26653;-61
2021/04/27 06:48:13;;;;;;;10.73;6.47;;;11.20;99.90;;;16.15;47.11;94078.00;2459688;56;26651;-61
2021/04/27 06:51:00;;;;;;;10.23;5.60;;;9.90;99.90;;;13.88;57.65;94075.00;2236118;57;26530;-61
2021/04/27 06:53:47;;;;;;;8.97;5.83;;;10.40;99.90;;;15.88;52.42;94078.00;2459243;56;26201;-58
2021/04/27 06:56:34;;;;;;;9.70;6.50;;;10.60;99.90;;;15.34;52.89;94083.00;2236087;57;26557;-58
2021/04/27 06:59:21;;;;;;;7.03;5.53;;;10.30;99.90;;;14.57;54.94;94072.00;2459390;56;26156;-58
2021/04/27 07:02:08;;;;;;;8.33;5.67;;;10.90;99.90;;;16.15;47.49;94073.00;2236356;57;26116;-58
2021/04/27 07:04:55;;;;;;;8.85;6.05;;;11.20;99.90;;;15.87;50.27;94075.00;2459545;56;26120;-59
2021/04/27 07:07:41;;;;;;;13.70;6.37;;;11.10;99.90;;;15.46;49.02;94077.00;2235830;57;26095;-58
2021/04/27 07:10:28;;;;;;;7.40;5.80;;;11.20;99.90;;;15.21;52.74;94071.00;2459191;56;26136;-58
2021/04/27 07:13:14;;;;;;;8.23;6.13;;;10.10;99.90;;;13.43;61.33;94077.00;2236644;57;26169;-58
2021/04/27 07:16:02;;;;;;;9.23;6.00;;;10.30;99.90;;;13.41;60.75;94069.00;2236225;57;26152;-58
2021/04/27 07:18:48;;;;;;;8.63;5.80;;;11.00;99.90;;;15.13;58.70;94069.00;2459430;56;26128;-59
2021/04/27 07:21:34;;;;;;;7.87;5.28;;;12.10;99.90;;;17.79;48.19;94062.00;2236242;57;26108;-58
2021/04/27 07:24:21;;;;;;;9.52;5.87;;;12.80;99.90;;;18.74;43.44;94057.00;2459075;56;26140;-58
2021/04/27 07:27:08;;;;;;;7.85;5.65;;;12.70;99.90;;;17.65;46.83;94056.00;2236079;57;26167;-58
2021/04/27 07:29:54;;;;;;;9.60;5.72;;;12.20;99.90;;;15.93;47.85;94053.00;2459479;56;26288;-58
2021/04/27 07:32:41;;;;;;;7.87;5.57;;;12.40;99.90;;;17.54;48.23;94057.00;2236504;57;26112;-58
2021/04/27 07:35:27;;;;;;;7.93;5.63;;;12.60;99.90;;;16.64;46.89;94056.00;2458979;56;26149;-58
2021/04/27 07:38:14;;;;;;;7.05;5.45;;;12.10;99.90;;;16.05;52.80;94057.00;2236893;57;26116;-58
2021/04/27 07:41:00;;;;;;;8.63;5.18;;;13.20;99.90;;;18.54;51.11;94049.00;2235722;57;26465;-58
2021/04/27 07:43:47;;;;;;;8.32;5.82;;;13.90;99.90;;;19.11;45.24;94049.00;2459392;56;26169;-59
2021/04/27 07:46:34;;;;;;;7.43;5.82;;;16.10;97.50;;;20.06;38.39;94046.00;2236364;57;26127;-59
2021/04/27 07:49:20;;;;;;;8.68;5.95;;;14.40;99.90;;;18.50;45.62;94055.00;2458867;56;26184;-58
2021/04/27 07:52:07;;;;;;;7.68;5.85;;;14.00;99.90;;;18.36;49.40;94052.00;2236177;57;26518;-59
2021/04/27 07:54:53;;;;;;;8.95;6.30;;;13.60;99.90;;;17.55;48.16;94052.00;2459614;56;26542;-59
2021/04/27 07:57:39;;;;;;;10.80;6.07;;;13.90;99.90;;;18.89;47.36;94054.00;2235850;57;26629;-58
2021/04/27 08:00:26;;;;;;;9.32;6.15;;;15.00;99.10;;;19.58;41.08;94046.00;2459419;56;26612;-59
2021/04/27 08:03:13;;;;;;;11.65;6.15;;;12.80;99.90;;;15.44;54.92;94060.00;2236685;57;26185;-58
2021/04/27 08:05:59;;;;;;;7.60;6.25;;;12.70;99.90;;;15.67;53.73;94057.00;2235693;57;26124;-58
2021/04/27 08:08:45;;;;;;;10.02;6.00;;;14.20;99.90;;;19.25;45.13;94047.00;2459141;56;26148;-58
2021/04/27 08:11:33;;;;;;;8.32;6.10;;;16.20;98.40;;;20.41;41.89;94040.00;2236127;57;26124;-58
2021/04/27 08:14:19;;;;;;;6.68;5.57;;;15.60;99.10;;;19.25;43.85;94048.00;2459063;56;26199;-59
2021/04/27 08:17:06;;;;;;;7.37;6.20;;;15.20;99.30;;;19.51;43.03;94044.00;2236239;57;26180;-58
2021/04/27 08:19:52;;;;;;;9.35;6.62;;;14.70;99.90;;;18.25;47.52;94044.00;2459136;56;26630;-58
2021/04/27 08:22:39;;;;;;;8.90;6.05;;;13.60;99.90;;;16.89;51.86;94039.00;2236209;57;26192;-59
2021/04/27 08:25:26;;;;;;;9.07;6.30;;;14.80;99.90;;;19.13;47.84;94038.00;2458785;56;26582;-61
2021/04/27 08:28:13;;;;;;;8.20;6.32;;;16.40;99.10;;;21.76;40.44;94029.00;2236003;57;26189;-58
2021/04/27 08:31:00;;;;;;;8.27;6.50;;;15.50;99.90;;;19.28;46.32;94036.00;2235753;57;26132;-58
2021/04/27 08:33:46;;;;;;;10.57;6.30;;;15.10;99.00;;;18.87;44.93;94038.00;2458814;56;26152;-60
2021/04/27 08:36:33;;;;;;;8.75;6.30;;;14.60;99.90;;;17.69;49.08;94033.00;2235789;57;26714;-58
2021/04/27 08:39:19;;;;;;;11.48;6.85;;;14.30;99.90;;;16.82;53.98;94036.00;2459300;56;26115;-58
2021/04/27 08:42:06;;;;;;;9.48;6.25;;;14.10;99.90;;;16.71;56.70;94040.00;2235983;57;26587;-59
2021/04/27 08:44:53;;;;;;;8.18;6.40;;;15.00;99.70;;;18.22;49.64;94030.00;2459422;56;26253;-60
2021/04/27 08:47:40;;;;;;;9.13;6.03;;;15.30;99.90;;;18.55;49.21;94028.00;2234528;57;26262;-59
2021/04/27 08:50:26;;;;;;;11.12;6.95;;;16.50;96.80;;;20.47;40.65;94032.00;2456518;56;26164;-59
2021/04/27 08:53:13;;;;;;;10.73;5.97;;;15.80;98.10;;;19.10;44.80;94021.00;2235287;56;26132;-59
2021/04/27 08:55:59;;;;;;;8.65;6.22;;;16.10;99.40;;;19.40;47.12;94028.00;2239537;56;26183;-58
2021/04/27 08:58:47;;;;;;;8.70;6.45;;;16.50;97.40;;;20.60;41.59;94014.00;2464192;56;26123;-59
2021/04/27 09:01:35;;;;;;;8.23;6.53;;;16.10;97.40;;;19.18;44.05;94017.00;2240215;56;26568;-58
2021/04/27 09:04:43;;;;;;;8.93;6.37;;;16.30;96.10;;;19.43;41.63;94012.00;2463428;56;26203;-58
2021/04/27 09:07:29;;;;;;;8.27;6.57;;;15.70;97.40;;;18.10;46.44;94018.00;2464237;56;26068;-59
2021/04/27 09:10:18;;;;;;;7.35;6.20;;;16.60;96.40;;;19.44;42.79;94012.00;2240750;56;26152;-59
2021/04/27 09:13:13;;;;;;;7.32;6.47;;;18.80;97.50;;;22.19;42.39;94009.00;2464267;56;26556;-58
2021/04/27 09:15:59;;;;;;;9.23;6.50;;;17.00;96.60;;;19.18;44.54;94001.00;2464242;56;26143;-60
2021/04/27 09:18:45;;;;;;;8.43;5.93;;;16.60;97.50;;;19.68;45.67;94007.00;2216359;56;26906;-58
2021/04/27 09:21:37;;;;;;;9.70;6.22;;;17.90;96.20;;;21.70;40.78;93998.00;2215790;56;26072;-59
2021/04/27 09:24:23;;;;;;;7.75;6.90;;;17.40;96.70;;;20.72;42.79;93999.00;2223459;56;26108;-59
2021/04/27 09:27:11;;;;;;;8.00;6.82;;;16.90;95.70;;;19.43;42.71;94002.00;2236563;57;26119;-58
2021/04/27 09:30:10;;;;;;;15.23;7.30;;;16.60;96.80;;;18.53;47.37;94006.00;2459803;56;26124;-58
2021/04/27 09:32:59;;;;;;;7.50;6.70;;;16.30;98.70;;;18.96;50.51;94001.00;2459770;56;26191;-59
2021/04/27 09:35:48;;;;;;;9.77;6.90;;;17.80;96.30;;;20.55;43.86;93993.00;2236225;57;26570;-58
2021/04/27 09:38:35;;;;;;;10.10;6.80;;;16.60;97.50;;;18.58;49.32;93989.00;2459824;56;26224;-58
2021/04/27 09:41:26;;;;;;;9.60;7.03;;;16.70;97.20;;;19.16;48.01;93996.00;2235948;57;26112;-58
2021/04/27 09:44:29;;;;;;;9.20;6.85;;;15.80;98.50;;;17.69;54.66;93990.00;2459791;56;26127;-59
2021/04/27 09:47:20;;;;;;;9.30;6.95;;;17.30;96.80;;;20.63;45.00;93985.00;2459936;56;26152;-59
2021/04/27 09:50:11;;;;;;;7.57;6.50;;;16.90;98.70;;;19.19;52.97;93995.00;2236259;57;26906;-59
2021/04/27 09:52:57;;;;;;;9.27;6.72;;;17.00;95.70;;;19.23;45.01;93991.00;2459478;56;26244;-58
2021/04/27 09:55:49;;;;;;;9.27;6.62;;;16.50;97.50;;;18.34;51.05;93985.00;2236169;57;26191;-58
2021/04/27 09:58:37;;;;;;;9.85;6.62;;;16.90;97.20;;;19.22;48.72;93978.00;2236664;57;26551;-58
2021/04/27 10:01:23;;;;;;;9.50;6.18;;;19.10;94.10;;;22.65;38.26;93983.00;2236240;57;26124;-58
2021/04/27 10:04:10;;;;;;;7.50;6.50;;;21.90;90.20;;;23.45;35.18;93980.00;2459716;56;26184;-58
2021/04/27 10:06:58;;;;;;;7.93;6.30;;;19.50;94.30;;;20.86;44.78;93976.00;2236459;57;26136;-58
2021/04/27 10:09:47;;;;;;;8.23;6.87;;;19.40;96.20;;;21.48;46.04;93968.00;2459504;56;26264;-60
2021/04/27 10:12:34;;;;;;;8.52;6.50;;;17.80;96.40;;;19.42;50.43;93966.00;2236073;57;26144;-59
2021/04/27 10:15:20;;;;;;;8.18;7.12;;;18.70;95.90;;;20.78;47.02;93946.00;2459777;56;26152;-58
2021/04/27 10:18:10;;;;;;;9.50;6.57;;;17.40;97.00;;;18.82;52.55;93965.00;2236718;57;26574;-59
2021/04/27 10:21:00;;;;;;;9.30;6.32;;;17.90;95.10;;;20.30;45.02;93956.00;2459027;56;26192;-59
2021/04/27 10:23:53;;;;;;;8.07;6.28;;;17.90;97.60;;;19.71;52.95;93945.00;2236737;57;26124;-58
2021/04/27 10:26:43;;;;;;;7.53;6.37;;;19.20;96.40;;;21.63;47.65;93947.00;2236276;57;26136;-58
2021/04/27 10:29:30;;;;;;;8.15;6.22;;;17.90;96.80;;;19.39;51.64;93947.00;2459369;56;26272;-58
2021/04/27 10:32:22;;;;;;;9.90;6.72;;;17.60;96.50;;;19.25;51.62;93952.00;2236842;57;26148;-58
2021/04/27 10:35:14;;;;;;;8.73;6.60;;;18.90;94.50;;;22.71;40.89;93946.00;2459425;56;26157;-58
2021/04/27 10:38:06;;;;;;;8.27;6.12;;;19.20;97.50;;;21.19;49.75;93940.00;2236548;57;26648;-58
2021/04/27 10:41:00;;;;;;;9.85;6.53;;;18.20;97.20;;;19.71;53.61;93940.00;2459471;56;26911;-59
2021/04/27 10:43:59;;;;;;;8.48;6.43;;;18.10;96.20;;;19.69;50.67;93936.00;2236919;57;26204;-58
2021/04/27 10:46:49;;;;;;;7.07;6.45;;;18.30;96.50;;;19.98;51.07;93935.00;2236586;57;26132;-59
2021/04/27 10:49:41;;;;;;;9.40;6.00;;;17.80;96.90;;;19.49;53.26;93942.00;2458911;56;26127;-58
2021/04/27 10:52:32;;;;;;;7.68;6.22;;;18.40;95.90;;;19.46;51.56;93935.00;2236475;57;26202;-59
2021/04/27 10:55:29;;;;;;;10.60;6.90;;;18.00;96.20;;;19.18;52.21;93935.00;2459453;56;26221;-59
2021/04/27 10:58:41;;;;;;;8.52;7.07;;;19.20;96.50;;;21.07;50.07;93932.00;2236412;57;26116;-59
2021/04/27 11:01:29;;;;;;;8.38;7.25;;;17.90;97.40;;;19.31;56.89;93924.00;2459089;56;26173;-58
2021/04/27 11:04:32;;;;;;;7.62;6.47;;;18.00;96.70;;;19.30;55.20;93928.00;2236438;57;26120;-59
2021/04/27 11:07:38;;;;;;;9.10;6.95;;;19.10;96.40;;;20.84;50.78;93911.00;2459612;56;26093;-59
2021/04/27 11:10:25;;;;;;;7.75;6.90;;;18.40;95.70;;;19.91;50.71;93918.00;2459673;56;26164;-59
2021/04/27 11:13:13;;;;;;;11.15;7.62;;;18.50;94.20;;;20.72;45.33;93911.00;2236452;57;26207;-58
2021/04/27 11:15:59;;;;;;;10.43;7.20;;;18.00;96.50;;;19.74;52.81;93920.00;2459593;56;26510;-58
2021/04/27 11:18:47;;;;;;;10.18;7.25;;;17.90;95.80;;;18.92;52.24;93920.00;2236650;57;26116;-59
2021/04/27 11:21:34;;;;;;;10.55;7.00;;;17.10;96.00;;;18.28;55.05;93915.00;2459254;56;26109;-58
2021/04/27 11:24:39;;;;;;;9.90;6.97;;;18.10;97.10;;;19.55;55.69;93914.00;2236637;57;26124;-59
2021/04/27 11:27:31;;;;;;;10.60;7.32;;;18.70;97.10;;;20.28;55.54;93905.00;2236225;57;26618;-59
2021/04/27 11:30:18;;;;;;;12.07;7.32;;;18.00;95.60;;;19.63;51.65;93911.00;2459560;56;26108;-59
2021/04/27 11:33:07;;;;;;;8.48;7.10;;;18.70;96.00;;;20.30;51.27;93905.00;2236636;57;26076;-60
2021/04/27 11:35:53;;;;;;;9.82;7.87;;;18.80;94.20;;;20.02;47.58;93906.00;2459293;56;26164;-60
2021/04/27 11:38:50;;;;;;;7.62;6.82;;;18.40;95.90;;;19.75;52.70;93904.00;2236663;57;26656;-59
2021/04/27 11:41:46;;;;;;;8.00;7.20;;;18.80;95.50;;;21.12;48.80;93892.00;2236153;57;26232;-60
2021/04/27 11:44:36;;;;;;;8.38;7.57;;;18.30;96.20;;;19.63;52.84;93900.00;2459408;56;26982;-59
2021/04/27 11:47:23;;;;;;;8.10;6.70;;;17.80;94.80;;;18.94;51.21;93897.00;2236591;57;26649;-59